Downstream station:
SHEF ID: NFSM7 N Fork Spring River nr Purcell, MO
STATION TYPE:
STAGE RIV-FLOW
ft cfs
Ccp-Rev Ccp-Rev
(US/Central)
04/02 00:00 4.43 328
04/02 01:00 4.41 322
04/02 02:00 4.38 314
04/02 03:00 4.36 309
04/02 04:00 4.34 303
04/02 05:00 4.31 295
04/02 06:00 4.29 290
04/02 07:00 4.27 285
04/02 08:00 4.24 278
04/02 09:00 4.22 273
04/02 10:00 4.21 270
04/02 11:00 4.19 266
04/02 12:00 4.18 263
04/02 13:00 4.16 258
04/02 14:00 4.14 254
04/02 15:00 4.12 249
04/02 16:00 4.10 244
04/02 17:00 4.08 240
04/02 18:00 4.07 238
04/02 19:00 4.05 233
04/02 20:00 4.03 229
04/02 21:00 4.02 226
04/02 22:00 4.01 224
04/02 23:00 4.00 222